createdAt,value
2018-12-17T00:01:39.719Z,36.25
2018-12-17T00:03:46.839Z,36.48
2018-12-17T00:05:53.747Z,36.02
2018-12-17T00:08:01.068Z,35.86
2018-12-17T00:10:08.110Z,36.54
2018-12-17T00:12:16.718Z,35.33
2018-12-17T00:14:23.836Z,34.66
2018-12-17T00:16:30.714Z,34.95
2018-12-17T00:18:38.316Z,35.38
2018-12-17T00:20:45.315Z,33.84
2018-12-17T00:22:52.235Z,33.88
2018-12-17T00:24:59.099Z,33.99
2018-12-17T00:27:05.902Z,33.32
2018-12-17T00:29:12.666Z,33.38
2018-12-17T00:31:19.768Z,33.69
2018-12-17T00:33:26.919Z,34.20
2018-12-17T00:35:33.562Z,34.63
2018-12-17T00:37:40.174Z,33.47
2018-12-17T00:39:47.322Z,34.52
2018-12-17T00:41:54.125Z,35.07
2018-12-17T00:44:00.870Z,34.46
2018-12-17T00:46:07.873Z,35.79
2018-12-17T00:48:14.738Z,36.27
2018-12-17T00:50:21.589Z,35.19
2018-12-17T00:52:28.327Z,35.75
2018-12-17T00:54:35.361Z,35.95
2018-12-17T00:56:42.215Z,36.36
2018-12-17T00:58:49.179Z,35.75
2018-12-17T01:00:56.121Z,35.58
2018-12-17T01:03:02.856Z,35.41
2018-12-17T01:05:10.002Z,35.62
2018-12-17T01:07:18.921Z,36.15
2018-12-17T01:09:25.954Z,36.47
2018-12-17T01:11:32.734Z,35.93
2018-12-17T01:13:39.686Z,36.61
2018-12-17T01:15:46.314Z,36.26
2018-12-17T01:17:53.514Z,35.60
2018-12-17T01:20:00.322Z,35.13
2018-12-17T01:22:07.334Z,35.20
2018-12-17T01:24:14.057Z,35.49
2018-12-17T01:26:21.639Z,35.29
2018-12-17T01:28:28.357Z,35.26
2018-12-17T01:30:35.431Z,35.65
2018-12-17T01:32:42.835Z,36.75
2018-12-17T01:34:50.653Z,36.42
2018-12-17T01:36:57.883Z,35.65
2018-12-17T01:39:05.019Z,36.06
2018-12-17T01:41:11.667Z,36.51
2018-12-17T01:43:18.200Z,36.90
2018-12-17T01:45:25.103Z,36.84
2018-12-17T01:47:31.709Z,36.64
2018-12-17T01:49:38.492Z,37.31
2018-12-17T01:51:45.343Z,37.07
2018-12-17T01:53:52.146Z,37.29
2018-12-17T01:55:59.081Z,36.91
2018-12-17T01:58:05.950Z,36.96
2018-12-17T02:00:12.771Z,36.87
2018-12-17T02:02:19.519Z,37.03
2018-12-17T02:04:26.278Z,37.11
2018-12-17T02:06:33.080Z,36.30
2018-12-17T02:08:40.021Z,36.56
2018-12-17T02:10:46.867Z,36.04
2018-12-17T02:12:53.883Z,37.18
2018-12-17T02:15:00.607Z,36.78
2018-12-17T02:17:07.456Z,36.84
2018-12-17T02:19:14.576Z,35.42
2018-12-17T02:21:21.269Z,36.43
2018-12-17T02:23:28.403Z,36.35
2018-12-17T02:25:35.092Z,35.56
2018-12-17T02:27:41.971Z,35.74
2018-12-17T02:29:48.733Z,36.13
2018-12-17T02:31:55.585Z,36.11
2018-12-17T02:34:02.382Z,36.26
2018-12-17T02:36:09.392Z,36.20
2018-12-17T02:38:16.145Z,35.64
2018-12-17T02:40:23.290Z,36.71
2018-12-17T02:42:30.028Z,36.34
2018-12-17T02:44:36.894Z,37.24
2018-12-17T02:46:43.786Z,37.49
2018-12-17T02:48:50.736Z,35.71
2018-12-17T02:50:57.429Z,34.84
2018-12-17T02:53:04.433Z,36.06
2018-12-17T02:55:11.183Z,35.66
2018-12-17T02:57:18.198Z,36.07
2018-12-17T02:59:25.429Z,36.03
2018-12-17T03:01:32.472Z,35.84
2018-12-17T03:03:39.278Z,35.72
2018-12-17T03:05:46.133Z,35.27
2018-12-17T03:07:53.018Z,35.66
2018-12-17T03:10:00.165Z,35.69
2018-12-17T03:12:07.167Z,36.30
2018-12-17T03:14:14.033Z,35.84
2018-12-17T03:16:21.598Z,36.01
2018-12-17T03:18:28.501Z,35.75
2018-12-17T03:20:35.247Z,35.41
2018-12-17T03:22:42.176Z,35.25
2018-12-17T03:24:49.174Z,35.65
2018-12-17T03:26:56.345Z,34.99
2018-12-17T03:29:03.214Z,35.25
2018-12-17T03:31:10.029Z,34.57
2018-12-17T03:33:17.078Z,34.39
2018-12-17T03:35:23.862Z,35.31
2018-12-17T03:37:30.169Z,35.15
2018-12-17T03:39:36.992Z,35.50
2018-12-17T03:41:44.243Z,34.97
2018-12-17T03:43:51.223Z,35.76
2018-12-17T03:45:57.989Z,35.31
2018-12-17T03:48:04.664Z,35.10
2018-12-17T03:50:11.842Z,35.32
2018-12-17T03:52:19.444Z,35.58
2018-12-17T03:54:26.098Z,35.40
2018-12-17T03:56:33.279Z,35.22
2018-12-17T03:58:40.268Z,35.76
2018-12-17T04:00:47.070Z,35.24
2018-12-17T04:02:53.956Z,35.58
2018-12-17T04:05:00.933Z,34.86
2018-12-17T04:07:07.651Z,34.69
2018-12-17T04:09:14.565Z,34.34
2018-12-17T04:11:21.177Z,33.46
2018-12-17T04:13:27.895Z,33.21
2018-12-17T04:15:35.154Z,34.18
2018-12-17T04:17:41.889Z,34.59
2018-12-17T04:19:48.789Z,33.98
2018-12-17T04:21:55.792Z,34.52
2018-12-17T04:24:03.305Z,35.22
2018-12-17T04:26:10.649Z,35.01
2018-12-17T04:28:17.592Z,34.61
2018-12-17T04:30:24.521Z,34.58
2018-12-17T04:32:31.293Z,35.08
2018-12-17T04:34:38.224Z,35.25
2018-12-17T04:36:45.503Z,35.38
2018-12-17T04:38:52.311Z,35.31
2018-12-17T04:40:59.056Z,35.35
2018-12-17T04:43:07.102Z,34.55
2018-12-17T04:45:13.691Z,34.89
2018-12-17T04:47:20.508Z,35.37
2018-12-17T04:49:27.477Z,35.08
2018-12-17T04:51:35.852Z,34.98
2018-12-17T04:53:42.550Z,34.80
2018-12-17T04:55:49.219Z,34.86
2018-12-17T04:57:56.434Z,34.77
2018-12-17T05:00:04.270Z,34.88
2018-12-17T05:02:10.929Z,35.17
2018-12-17T05:04:17.714Z,34.92
2018-12-17T05:06:24.861Z,35.07
2018-12-17T05:08:31.612Z,34.70
2018-12-17T05:10:38.319Z,35.51
2018-12-17T05:12:45.175Z,36.38
2018-12-17T05:14:51.929Z,35.57
2018-12-17T05:16:58.457Z,35.71
2018-12-17T05:19:05.472Z,35.70
2018-12-17T05:21:12.287Z,35.80
2018-12-17T05:23:19.049Z,34.86
2018-12-17T05:25:25.697Z,35.21
2018-12-17T05:27:32.721Z,34.70
2018-12-17T05:29:39.375Z,34.90
2018-12-17T05:31:46.408Z,34.62
2018-12-17T05:33:53.988Z,35.50
2018-12-17T05:36:01.562Z,34.80
2018-12-17T05:38:08.678Z,34.69
2018-12-17T05:40:15.683Z,34.89
2018-12-17T05:42:22.549Z,35.16
2018-12-17T05:44:29.591Z,34.81
2018-12-17T05:46:37.034Z,35.25
2018-12-17T05:48:44.070Z,35.33
2018-12-17T05:50:50.882Z,34.92
2018-12-17T05:52:57.648Z,35.09
2018-12-17T05:55:04.274Z,34.80
2018-12-17T05:57:10.949Z,35.18
2018-12-17T05:59:17.747Z,34.97
2018-12-17T06:01:24.322Z,35.77
2018-12-17T06:03:31.157Z,34.93
2018-12-17T06:05:38.744Z,35.56
2018-12-17T06:07:45.666Z,35.14
2018-12-17T06:09:52.173Z,35.47
2018-12-17T06:11:59.133Z,35.43
2018-12-17T06:14:06.189Z,35.49
2018-12-17T06:16:12.877Z,35.92
2018-12-17T06:18:19.979Z,36.33
2018-12-17T06:20:26.810Z,35.28
2018-12-17T06:22:33.265Z,35.27
2018-12-17T06:24:40.117Z,35.08
2018-12-17T06:26:46.925Z,34.78
2018-12-17T06:28:53.644Z,33.85
2018-12-17T06:31:00.322Z,33.61
2018-12-17T06:33:07.269Z,33.92
2018-12-17T06:35:14.586Z,34.58
2018-12-17T06:37:21.317Z,34.79
2018-12-17T06:39:28.148Z,34.38
2018-12-17T06:41:35.034Z,34.49
2018-12-17T06:43:41.888Z,34.86
2018-12-17T06:45:49.193Z,35.37
2018-12-17T06:47:55.958Z,35.14
2018-12-17T06:50:03.118Z,34.86
2018-12-17T06:52:10.013Z,34.70
2018-12-17T06:54:16.846Z,35.84
2018-12-17T06:56:23.701Z,35.96
2018-12-17T06:58:30.920Z,35.27
2018-12-17T07:00:37.882Z,35.29
2018-12-17T07:02:44.550Z,35.39
2018-12-17T07:04:51.313Z,34.90
2018-12-17T07:06:58.169Z,35.02
2018-12-17T07:09:06.098Z,35.20
2018-12-17T07:11:12.865Z,35.67
2018-12-17T07:13:19.822Z,35.71
2018-12-17T07:15:26.528Z,35.22
2018-12-17T07:17:33.352Z,36.01
2018-12-17T07:19:40.702Z,36.73
2018-12-17T07:21:47.502Z,35.90
2018-12-17T07:23:54.350Z,36.07
2018-12-17T07:26:01.189Z,34.81
2018-12-17T07:28:08.074Z,35.19
2018-12-17T07:30:14.748Z,34.69
2018-12-17T07:32:21.681Z,34.55
2018-12-17T07:34:29.179Z,34.30
2018-12-17T07:36:36.231Z,35.10
2018-12-17T07:38:43.185Z,35.08
2018-12-17T07:40:49.838Z,35.17
2018-12-17T07:42:56.430Z,35.89
2018-12-17T07:45:05.208Z,34.51
2018-12-17T07:47:12.073Z,36.06
2018-12-17T07:49:19.623Z,35.61
2018-12-17T07:51:27.203Z,35.72
2018-12-17T07:53:34.309Z,34.86
2018-12-17T07:55:41.276Z,35.26
2018-12-17T07:57:47.941Z,35.18
2018-12-17T07:59:56.867Z,35.68
2018-12-17T08:02:03.974Z,35.11
2018-12-17T08:04:11.200Z,35.97
2018-12-17T08:06:17.855Z,35.54
2018-12-17T08:08:24.670Z,35.95
2018-12-17T08:10:32.047Z,35.74
2018-12-17T08:12:38.774Z,35.73
2018-12-17T08:14:45.470Z,35.23
2018-12-17T08:16:52.982Z,35.37
2018-12-17T08:18:59.714Z,35.52
2018-12-17T08:21:06.445Z,36.50
2018-12-17T08:23:13.309Z,35.50
2018-12-17T08:25:20.046Z,36.32
2018-12-17T08:27:26.774Z,34.51
2018-12-17T08:29:33.493Z,34.39
2018-12-17T08:31:40.517Z,34.25
2018-12-17T08:33:47.378Z,34.72
2018-12-17T08:35:54.401Z,34.75
2018-12-17T08:38:01.258Z,35.19
2018-12-17T08:40:08.777Z,35.21
2018-12-17T08:42:15.620Z,34.27
2018-12-17T08:44:22.419Z,35.09
2018-12-17T08:46:29.163Z,34.93
2018-12-17T08:48:35.886Z,35.18
2018-12-17T08:50:42.869Z,35.81
2018-12-17T08:52:50.046Z,34.76
2018-12-17T08:54:57.045Z,35.09
2018-12-17T08:57:03.886Z,35.64
2018-12-17T08:59:10.943Z,35.14
2018-12-17T09:01:17.738Z,35.60
2018-12-17T09:03:24.780Z,35.33
2018-12-17T09:05:31.628Z,35.52
2018-12-17T09:07:38.800Z,35.54
2018-12-17T09:09:45.790Z,35.54
2018-12-17T09:11:52.557Z,35.57
2018-12-17T09:13:59.356Z,35.51
2018-12-17T09:16:06.391Z,36.17
2018-12-17T09:18:13.884Z,35.78
2018-12-17T09:20:20.854Z,35.85
2018-12-17T09:22:27.758Z,36.09
2018-12-17T09:24:34.429Z,35.25
2018-12-17T09:26:41.378Z,34.79
2018-12-17T09:28:48.547Z,34.57
2018-12-17T09:30:55.347Z,34.61
2018-12-17T09:33:02.458Z,33.88
2018-12-17T09:35:09.203Z,33.62
2018-12-17T09:37:16.303Z,34.40
2018-12-17T09:39:23.078Z,33.25
2018-12-17T09:41:30.198Z,35.55
2018-12-17T09:43:37.317Z,35.58
2018-12-17T09:45:44.237Z,35.39
2018-12-17T09:47:51.125Z,35.29
2018-12-17T09:49:57.813Z,35.08
2018-12-17T09:52:04.621Z,35.63
2018-12-17T09:54:11.567Z,35.76
2018-12-17T09:56:18.287Z,35.25
2018-12-17T09:58:25.978Z,35.67
2018-12-17T10:00:32.594Z,35.21
2018-12-17T10:02:39.566Z,35.05
2018-12-17T10:04:46.477Z,35.38
2018-12-17T10:06:53.348Z,35.72
2018-12-17T10:09:01.149Z,35.20
2018-12-17T10:11:08.285Z,35.05
2018-12-17T10:13:15.961Z,35.09
2018-12-17T10:15:22.750Z,35.39
2018-12-17T10:17:29.753Z,35.81
2018-12-17T10:19:37.059Z,35.99
2018-12-17T10:21:43.839Z,35.60
2018-12-17T10:23:50.858Z,35.79
2018-12-17T10:25:57.514Z,35.81
2018-12-17T10:28:04.738Z,35.63
2018-12-17T10:30:11.541Z,36.14
2018-12-17T10:32:18.511Z,35.94
2018-12-17T10:34:25.280Z,36.01
2018-12-17T10:36:32.107Z,36.14
2018-12-17T10:38:38.992Z,36.06
2018-12-17T10:40:45.691Z,35.86
2018-12-17T10:42:52.425Z,36.20
2018-12-17T10:44:59.259Z,35.62
2018-12-17T10:47:06.166Z,35.33
2018-12-17T10:49:12.867Z,35.57
2018-12-17T10:51:19.579Z,34.93
2018-12-17T10:53:26.409Z,34.16
2018-12-17T10:55:33.334Z,35.07
2018-12-17T10:57:40.326Z,34.32
2018-12-17T10:59:47.026Z,34.53
2018-12-17T11:01:59.222Z,34.79
2018-12-17T11:04:18.130Z,34.72
2018-12-17T11:06:25.295Z,34.83
2018-12-17T11:08:32.205Z,34.92
2018-12-17T11:10:38.839Z,35.53
2018-12-17T11:12:45.658Z,34.92
2018-12-17T11:14:52.320Z,35.14
2018-12-17T11:16:59.015Z,35.67
2018-12-17T11:19:05.779Z,35.68
2018-12-17T11:21:12.651Z,35.00
2018-12-17T11:23:19.869Z,35.17
2018-12-17T11:25:26.818Z,35.58
2018-12-17T11:27:33.313Z,35.38
2018-12-17T11:29:40.134Z,34.92
2018-12-17T11:31:47.029Z,36.08
2018-12-17T11:33:54.262Z,34.90
2018-12-17T11:36:01.127Z,34.57
2018-12-17T11:38:07.901Z,34.42
2018-12-17T11:40:14.568Z,33.98
2018-12-17T11:42:21.631Z,34.63
2018-12-17T11:44:28.391Z,34.69
2018-12-17T11:46:35.140Z,34.04
2018-12-17T11:48:42.407Z,33.55
2018-12-17T11:50:52.074Z,33.39
2018-12-17T11:52:58.846Z,33.04
2018-12-17T11:55:05.630Z,33.67
2018-12-17T11:57:25.377Z,34.77
2018-12-17T11:59:32.173Z,33.86
2018-12-17T12:01:38.833Z,34.36
2018-12-17T12:03:45.819Z,34.85
2018-12-17T12:05:52.847Z,34.88
2018-12-17T12:08:00.395Z,35.51
2018-12-17T12:10:07.368Z,34.88
2018-12-17T12:12:14.826Z,35.28
2018-12-17T12:14:21.800Z,35.49
2018-12-17T12:16:28.481Z,35.58
2018-12-17T12:18:34.810Z,35.81
2018-12-17T12:20:41.806Z,35.33
2018-12-17T12:22:49.176Z,35.89
2018-12-17T12:24:55.967Z,36.02
2018-12-17T12:27:03.078Z,36.42
2018-12-17T12:29:09.956Z,36.67
2018-12-17T12:31:16.615Z,35.98
2018-12-17T12:33:23.230Z,35.60
2018-12-17T12:35:30.429Z,35.76
2018-12-17T12:37:37.465Z,35.40
2018-12-17T12:39:44.336Z,35.79
2018-12-17T12:41:52.189Z,34.83
2018-12-17T12:43:59.055Z,34.12
2018-12-17T12:46:07.218Z,33.58
2018-12-17T12:48:14.036Z,33.54
2018-12-17T12:50:21.079Z,34.69
2018-12-17T12:52:27.732Z,33.12
2018-12-17T12:54:34.637Z,32.82
2018-12-17T12:56:41.831Z,32.39
2018-12-17T12:58:48.514Z,32.79
2018-12-17T13:00:55.598Z,33.08
2018-12-17T13:03:02.516Z,32.07
2018-12-17T13:05:09.277Z,32.13
2018-12-17T13:07:16.176Z,32.05
2018-12-17T13:09:24.274Z,31.81
2018-12-17T13:11:30.782Z,32.15
2018-12-17T13:13:37.402Z,32.79
2018-12-17T13:15:44.133Z,33.41
2018-12-17T13:17:50.939Z,32.36
2018-12-17T13:19:58.465Z,32.71
2018-12-17T13:22:05.417Z,32.23
2018-12-17T13:24:12.305Z,32.54
2018-12-17T13:26:19.070Z,32.28
2018-12-17T13:28:26.131Z,32.46
2018-12-17T13:30:32.674Z,32.05
2018-12-17T13:32:39.661Z,32.08
2018-12-17T13:34:46.633Z,32.40
2018-12-17T13:36:53.706Z,31.95
2018-12-17T13:39:00.651Z,31.93
2018-12-17T13:41:07.641Z,33.11
2018-12-17T13:43:15.039Z,32.25
2018-12-17T13:45:21.488Z,31.74
2018-12-17T13:47:28.327Z,31.53
2018-12-17T13:49:35.249Z,32.31
2018-12-17T13:51:46.539Z,32.79
2018-12-17T13:53:55.582Z,34.04
2018-12-17T13:56:02.598Z,34.16
2018-12-17T13:58:09.302Z,33.55
2018-12-17T14:00:16.534Z,34.25
2018-12-17T14:02:23.527Z,34.00
2018-12-17T14:04:30.122Z,34.96
2018-12-17T14:06:37.062Z,34.25
2018-12-17T14:08:44.918Z,34.75
2018-12-17T14:10:54.319Z,34.13
2018-12-17T14:13:28.484Z,33.96
2018-12-17T14:15:41.769Z,33.91
2018-12-17T14:17:48.790Z,33.76
2018-12-17T14:20:00.158Z,32.85
2018-12-17T14:22:09.472Z,32.74
2018-12-17T14:24:16.583Z,33.53
2018-12-17T14:26:23.877Z,33.17
2018-12-17T14:28:31.644Z,32.90
2018-12-17T14:30:38.539Z,33.40
2018-12-17T14:32:45.482Z,33.12
2018-12-17T14:34:53.836Z,33.48
2018-12-17T14:37:00.785Z,33.95
2018-12-17T14:39:08.857Z,33.46
2018-12-17T14:41:15.707Z,33.95
2018-12-17T14:43:22.367Z,34.62
2018-12-17T14:45:29.166Z,34.08
2018-12-17T14:47:35.930Z,34.19
2018-12-17T14:49:42.755Z,34.03
2018-12-17T14:51:49.365Z,34.23
2018-12-17T14:53:56.036Z,33.88
2018-12-17T14:56:02.815Z,34.12
2018-12-17T14:58:09.529Z,34.58
2018-12-17T15:00:16.373Z,33.50
2018-12-17T15:02:23.603Z,33.03
2018-12-17T15:04:30.578Z,32.43
2018-12-17T15:06:37.128Z,33.12
2018-12-17T15:08:43.997Z,32.83
2018-12-17T15:10:51.016Z,33.23
2018-12-17T15:12:57.957Z,32.06
2018-12-17T15:15:04.837Z,31.81
2018-12-17T15:17:11.596Z,30.93
2018-12-17T15:19:19.024Z,30.87
2018-12-17T15:21:25.977Z,30.37
2018-12-17T15:23:32.734Z,30.80
2018-12-17T15:25:40.013Z,30.78
2018-12-17T15:27:46.722Z,30.75
2018-12-17T15:29:54.089Z,30.35
2018-12-17T15:32:00.723Z,30.54
2018-12-17T15:34:07.461Z,29.97
2018-12-17T15:36:14.821Z,30.33
2018-12-17T15:38:21.818Z,30.15
2018-12-17T15:40:28.493Z,30.82
2018-12-17T15:42:40.761Z,30.38
2018-12-17T15:44:43.944Z,30.28
2018-12-17T15:46:50.899Z,30.38
2018-12-17T15:48:57.543Z,29.50
2018-12-17T15:51:04.394Z,31.71
2018-12-17T15:53:11.726Z,31.41
2018-12-17T15:55:18.526Z,31.30
2018-12-17T15:57:25.218Z,32.14
2018-12-17T15:59:32.266Z,32.06
2018-12-17T16:01:38.906Z,31.92
2018-12-17T16:03:45.767Z,31.95
2018-12-17T16:05:52.610Z,32.60
2018-12-17T16:07:59.422Z,32.59
2018-12-17T16:10:06.281Z,32.72
2018-12-17T16:12:13.326Z,32.98
2018-12-17T16:14:20.801Z,33.30
2018-12-17T16:16:27.746Z,32.46
2018-12-17T16:18:34.604Z,32.14
2018-12-17T16:20:41.620Z,33.30
2018-12-17T16:22:48.720Z,33.38
2018-12-17T16:24:55.503Z,31.21
2018-12-17T16:27:02.474Z,32.12
2018-12-17T16:29:09.329Z,29.36
2018-12-17T16:31:16.160Z,28.87
2018-12-17T16:33:29.704Z,29.96
2018-12-17T16:35:32.318Z,30.07
2018-12-17T16:37:38.934Z,29.34
2018-12-17T16:39:45.921Z,29.65
2018-12-17T16:41:53.023Z,28.86
2018-12-17T16:44:00.339Z,29.39
2018-12-17T16:46:07.241Z,29.61
2018-12-17T16:48:14.202Z,28.86
2018-12-17T16:50:20.942Z,29.13
2018-12-17T16:52:27.741Z,28.52
2018-12-17T16:54:34.777Z,28.80
2018-12-17T16:56:42.196Z,29.64
2018-12-17T16:58:49.411Z,29.58
2018-12-17T17:00:56.431Z,30.29
2018-12-17T17:03:03.054Z,30.23
2018-12-17T17:05:09.935Z,30.17
2018-12-17T17:07:16.782Z,29.98
2018-12-17T17:09:23.965Z,29.58
2018-12-17T17:11:30.985Z,30.87
2018-12-17T17:13:37.886Z,30.77
2018-12-17T17:15:48.338Z,31.13
2018-12-17T17:17:55.450Z,31.75
2018-12-17T17:20:02.172Z,31.67
2018-12-17T17:22:09.105Z,31.80
2018-12-17T17:24:16.071Z,31.37
2018-12-17T17:26:22.916Z,31.77
2018-12-17T17:28:29.718Z,31.78
2018-12-17T17:30:36.770Z,31.86
2018-12-17T17:32:43.355Z,32.63
2018-12-17T17:34:50.180Z,31.96
2018-12-17T17:36:57.089Z,31.52
2018-12-17T17:39:04.737Z,31.75
2018-12-17T17:41:11.574Z,32.00
2018-12-17T17:43:18.281Z,32.44
2018-12-17T17:45:25.384Z,32.29
2018-12-17T17:47:32.095Z,32.64
2018-12-17T17:49:38.979Z,32.73
2018-12-17T17:51:46.321Z,32.28
2018-12-17T17:53:53.339Z,32.78
2018-12-17T17:56:00.044Z,32.53
2018-12-17T17:58:06.770Z,32.05
2018-12-17T18:00:13.977Z,32.45
2018-12-17T18:02:20.678Z,32.88
2018-12-17T18:04:27.725Z,32.71
2018-12-17T18:06:34.930Z,32.40
2018-12-17T18:08:41.950Z,32.84
2018-12-17T18:10:48.678Z,32.36
2018-12-17T18:12:55.582Z,32.45
2018-12-17T18:15:02.857Z,31.92
2018-12-17T18:17:09.795Z,31.61
2018-12-17T18:19:16.696Z,30.53
2018-12-17T18:21:23.662Z,30.39
2018-12-17T18:23:30.408Z,29.92
2018-12-17T18:25:37.021Z,29.52
2018-12-17T18:27:44.102Z,29.41
2018-12-17T18:29:51.009Z,30.41
2018-12-17T18:31:58.114Z,30.24
2018-12-17T18:34:04.783Z,30.38
2018-12-17T18:36:11.525Z,30.54
2018-12-17T18:38:18.588Z,31.48
2018-12-17T18:40:25.510Z,31.44
2018-12-17T18:42:31.962Z,31.77
2018-12-17T18:44:38.587Z,32.40
2018-12-17T18:46:45.518Z,31.91
2018-12-17T18:48:52.522Z,32.11
2018-12-17T18:50:59.458Z,32.99
2018-12-17T18:53:06.499Z,32.07
2018-12-17T18:55:13.072Z,32.28
2018-12-17T18:57:20.073Z,32.16
2018-12-17T18:59:27.021Z,32.74
2018-12-17T19:01:33.937Z,32.20
2018-12-17T19:03:41.044Z,32.60
2018-12-17T19:05:48.208Z,32.57
2018-12-17T19:07:54.926Z,32.92
2018-12-17T19:10:02.297Z,33.20
2018-12-17T19:12:09.210Z,33.28
2018-12-17T19:14:16.003Z,32.92
2018-12-17T19:16:23.038Z,32.75
2018-12-17T19:18:29.954Z,32.60
2018-12-17T19:20:36.682Z,32.94
2018-12-17T19:22:43.536Z,33.11
2018-12-17T19:24:50.190Z,33.70
2018-12-17T19:26:57.114Z,33.51
2018-12-17T19:29:03.831Z,33.61
2018-12-17T19:31:10.692Z,33.74
2018-12-17T19:33:17.678Z,33.85
2018-12-17T19:35:24.413Z,33.58
2018-12-17T19:37:31.145Z,34.35
2018-12-17T19:39:38.166Z,34.65
2018-12-17T19:41:45.183Z,34.33
2018-12-17T19:43:51.942Z,34.79
2018-12-17T19:45:58.838Z,34.64
2018-12-17T19:48:05.786Z,34.36
2018-12-17T19:50:12.573Z,34.19
2018-12-17T19:52:19.461Z,34.38
2018-12-17T19:54:26.442Z,34.45
2018-12-17T19:56:33.466Z,34.67
2018-12-17T19:58:40.385Z,34.35
2018-12-17T20:00:47.330Z,34.03
2018-12-17T20:02:54.393Z,34.29
2018-12-17T20:05:01.422Z,34.13
2018-12-17T20:07:08.202Z,34.80
2018-12-17T20:09:15.365Z,34.54
2018-12-17T20:11:22.540Z,35.40
2018-12-17T20:13:29.487Z,34.75
2018-12-17T20:15:36.487Z,35.16
2018-12-17T20:17:43.093Z,34.53
2018-12-17T20:19:49.674Z,34.56
2018-12-17T20:21:56.539Z,34.50
2018-12-17T20:24:03.208Z,34.96
2018-12-17T20:26:19.750Z,35.31
2018-12-17T20:28:26.926Z,34.23
2018-12-17T20:30:33.723Z,34.04
2018-12-17T20:32:40.562Z,35.84
2018-12-17T20:34:47.514Z,33.30
2018-12-17T20:36:54.095Z,33.99
2018-12-17T20:39:00.713Z,32.53
2018-12-17T20:41:07.654Z,37.16
2018-12-17T20:43:14.386Z,31.62
2018-12-17T20:45:21.460Z,31.98
2018-12-17T20:47:28.286Z,31.77
2018-12-17T20:49:35.365Z,31.55
2018-12-17T20:51:42.793Z,32.57
2018-12-17T20:53:49.700Z,32.32
2018-12-17T20:55:57.213Z,32.81
2018-12-17T20:58:04.094Z,32.89
2018-12-17T21:00:11.799Z,32.99
2018-12-17T21:02:18.873Z,32.33
2018-12-17T21:04:25.805Z,33.17
2018-12-17T21:06:32.762Z,33.24
2018-12-17T21:08:39.807Z,33.04
2018-12-17T21:10:46.617Z,33.04
2018-12-17T21:12:53.900Z,33.13
2018-12-17T21:15:01.313Z,33.38
2018-12-17T21:17:08.420Z,33.40
2018-12-17T21:19:15.645Z,33.33
2018-12-17T21:21:22.953Z,33.22
2018-12-17T21:23:29.959Z,34.30
2018-12-17T21:25:36.657Z,33.59
2018-12-17T21:27:43.683Z,34.06
2018-12-17T21:29:51.131Z,33.47
2018-12-17T21:31:57.865Z,34.07
2018-12-17T21:34:04.546Z,33.55
2018-12-17T21:36:11.197Z,34.29
2018-12-17T21:38:17.972Z,33.47
2018-12-17T21:40:24.714Z,34.17
2018-12-17T21:42:31.403Z,33.94
2018-12-17T21:44:38.207Z,34.47
2018-12-17T21:46:44.937Z,34.49
2018-12-17T21:48:51.756Z,34.88
2018-12-17T21:50:58.598Z,34.38
2018-12-17T21:53:05.846Z,34.68
2018-12-17T21:55:12.631Z,34.68
2018-12-17T21:57:19.310Z,35.43
2018-12-17T21:59:26.246Z,34.74
2018-12-17T22:01:33.097Z,35.12
2018-12-17T22:03:40.034Z,35.27
2018-12-17T22:05:47.076Z,34.55
2018-12-17T22:07:53.640Z,34.76
2018-12-17T22:10:01.101Z,34.85
2018-12-17T22:12:07.956Z,34.64
2018-12-17T22:14:14.703Z,33.96
2018-12-17T22:16:21.471Z,35.45
2018-12-17T22:18:28.256Z,34.53
2018-12-17T22:20:35.604Z,34.19
2018-12-17T22:22:42.607Z,33.19
2018-12-17T22:24:49.334Z,32.74
2018-12-17T22:26:55.996Z,32.94
2018-12-17T22:29:02.731Z,31.74
2018-12-17T22:31:09.760Z,31.46
2018-12-17T22:33:19.689Z,32.75
2018-12-17T22:35:25.920Z,32.29
2018-12-17T22:37:32.470Z,33.23
2018-12-17T22:39:39.241Z,33.20
2018-12-17T22:41:45.786Z,33.11
2018-12-17T22:43:52.737Z,32.79
2018-12-17T22:45:59.637Z,34.21
2018-12-17T22:48:06.393Z,33.92
2018-12-17T22:50:13.149Z,34.17
2018-12-17T22:52:19.999Z,34.11
2018-12-17T22:54:26.853Z,34.98
2018-12-17T22:56:33.666Z,35.14
2018-12-17T22:58:42.511Z,34.85
2018-12-17T23:00:49.425Z,35.18
2018-12-17T23:02:56.495Z,35.14
2018-12-17T23:05:03.633Z,34.84
2018-12-17T23:07:10.482Z,34.30
2018-12-17T23:09:14.992Z,34.96
2018-12-17T23:11:31.641Z,34.81
2018-12-17T23:13:48.237Z,35.73
2018-12-17T23:16:04.887Z,34.20
2018-12-17T23:18:09.245Z,36.11
2018-12-17T23:20:15.817Z,34.35
2018-12-17T23:22:22.481Z,35.86
2018-12-17T23:24:29.601Z,34.96
2018-12-17T23:26:36.513Z,35.44
2018-12-17T23:28:43.233Z,36.70
2018-12-17T23:30:49.871Z,36.09
2018-12-17T23:32:58.867Z,35.83
2018-12-17T23:35:06.635Z,35.76
2018-12-17T23:37:13.578Z,36.42
2018-12-17T23:39:20.717Z,37.26
2018-12-17T23:41:27.603Z,37.06
2018-12-17T23:43:34.574Z,36.71
2018-12-17T23:45:41.262Z,37.30
2018-12-17T23:47:48.250Z,37.00
2018-12-17T23:49:55.170Z,37.37
2018-12-17T23:52:02.250Z,37.28
2018-12-17T23:54:09.263Z,36.93
2018-12-17T23:56:17.106Z,36.74
2018-12-17T23:58:23.986Z,36.90
